• Join FlightAware (Why Join?)
  • Login
  • US Flag 
05:03PM EDT


 

Airport Tracker/Info


-or-


 

Live Flight TrackerFlight Track Log ✈ TAM3180 ✈ 06-May-2013 ✈ SBBR / BSB - SBSL / SLZ

Flight Track Log - Related Links

Times and Time Zones

All times are in EDT time to prevent confusion due to time zone crossing. See the TAM3180 flight status page for this flight to view local times or setup timezone preferences in your user account.

Time Position Orientation Groundspeed Altitude Reporting Facility
EDT Latitude Longitude Course Direction KTS MPH feet Rate Location/Type
12:07AM -15.6440 -47.9730 17° North 336 387 11,600  Level FlightAware
12:08AM -15.5710 -47.9480 18° North 387 445 12,700 1,620 Climbing FlightAware
12:08AM -15.5030 -47.9260 17° North 389 448 14,100 1,860 Climbing FlightAware
12:09AM -15.4300 -47.9020 18° North 395 455 15,400 1,920 Climbing FlightAware
12:10AM -15.3490 -47.8750 18° North 398 458 16,900 1,620 Climbing FlightAware
12:11AM -15.2640 -47.8470 18° North 411 473 18,000 660 Climbing FlightAware
12:11AM -15.1900 -47.8240 17° North 411 473 18,000  Level FlightAware
12:12AM -15.1280 -47.8040 17° North 411 473 18,000  Level FlightAware
12:13AM -15.0510 -47.7800 17° North 411 473 18,000  Level FlightAware
12:14AM -14.9890 -47.7600 17° North 411 473 18,000  Level FlightAware
12:14AM -14.9270 -47.7410 16° North 411 473 18,000 540 Level FlightAware
12:17AM -14.7269 -47.6817 16° North  Level Estimated
12:18AM -14.6366 -47.6550 16° North  Level Estimated
12:19AM -14.5463 -47.6283 16° North  Level Estimated
12:20AM -14.4560 -47.6016 16° North  Level Estimated
12:21AM -14.3657 -47.5750 16° North  Level Estimated
12:22AM -14.2754 -47.5484 16° North  Level Estimated
12:23AM -14.1851 -47.5218 16° North  Level Estimated
12:24AM -14.0947 -47.4952 16° North  Level Estimated
12:25AM -14.0044 -47.4686 16° North  Level Estimated
12:26AM -13.9141 -47.4421 16° North  Level Estimated
12:27AM -13.8238 -47.4156 16° North  Level Estimated
12:28AM -13.7335 -47.3891 16° North  Level Estimated
12:29AM -13.6431 -47.3626 16° North  Level Estimated
12:30AM -13.5528 -47.3361 16° North  Level Estimated
12:31AM -13.4625 -47.3097 16° North  Level Estimated
12:32AM -13.3722 -47.2833 16° North  Level Estimated
12:33AM -13.2818 -47.2569 16° North  Level Estimated
12:34AM -13.1915 -47.2305 16° North  Level Estimated
12:35AM -13.1011 -47.2041 16° North  Level Estimated
12:36AM -13.0108 -47.1778 16° North  Level Estimated
12:37AM -12.9204 -47.1515 16° North  Level Estimated
12:38AM -12.8301 -47.1252 16° North  Level Estimated
12:39AM -12.7397 -47.0989 16° North  Level Estimated
12:40AM -12.6494 -47.0726 16° North  Level Estimated
12:41AM -12.5590 -47.0464 16° North  Level Estimated
12:42AM -12.4687 -47.0201 16° North  Level Estimated
12:42AM -11.4750 -46.7340 16° North 453 521 35,000  Level FlightAware
12:43AM -11.4060 -46.7160 14° North 453 521 35,000  Level FlightAware
12:43AM -11.5290 -46.7490 195° South 35,000  Level FlightAware
12:45AM -11.1380 -46.6370 16° North 457 526 35,000  Level FlightAware
12:46AM -11.0380 -46.6080 16° North 454 522 35,000  Level FlightAware
12:46AM -10.9640 -46.5870 16° North 452 520 35,000  Level FlightAware
12:47AM -10.8700 -46.5600 16° North 450 518 35,000  Level FlightAware
12:48AM -10.7900 -46.5370 16° North 448 516 35,000  Level FlightAware
12:48AM -10.7080 -46.5150 15° North 448 516 35,000  Level FlightAware
12:49AM -10.6400 -46.4960 15° North 448 516 35,000  Level FlightAware
12:50AM -10.5720 -46.4770 15° North 448 516 35,000  Level FlightAware
12:50AM -10.5040 -46.4590 15° North 448 516 35,000  Level FlightAware
12:51AM -10.4360 -46.4400 15° North 448 516 35,000  Level FlightAware
12:52AM -10.3510 -46.4170 15° North 448 516 35,000  Level FlightAware
12:53AM -10.2830 -46.3990 15° North 448 516 35,000  Level FlightAware
12:53AM -10.2150 -46.3800 15° North 448 516 35,000  Level FlightAware
12:54AM -10.1470 -46.3620 15° North 448 516 35,000  Level FlightAware
12:55AM -10.0780 -46.3430 15° North 448 516 35,000  Level FlightAware
12:55AM -9.9930 -46.3200 15° North 448 516 35,000  Level FlightAware
12:56AM -9.9250 -46.3010 15° North 448 516 35,000  Level FlightAware
12:57AM -9.8570 -46.2830 15° North 448 516 35,000  Level FlightAware
12:57AM -9.7890 -46.2640 15° North 448 516 35,000  Level FlightAware
01:00AM -9.6055 -46.2114 16° North  Level Estimated
01:01AM -9.5195 -46.1868 16° North  Level Estimated
01:02AM -9.4335 -46.1622 16° North  Level Estimated
01:03AM -9.3475 -46.1376 16° North  Level Estimated
01:04AM -9.2614 -46.1130 16° North  Level Estimated
01:05AM -9.1754 -46.0885 16° North  Level Estimated
01:06AM -9.0946 -46.0654 16° North  Level Estimated
01:07AM -9.0139 -46.0424 16° North  Level Estimated
01:08AM -8.9331 -46.0193 16° North  Level Estimated
01:09AM -8.8523 -45.9963 16° North  Level Estimated
01:10AM -8.7715 -45.9733 16° North  Level Estimated
01:11AM -8.6907 -45.9503 16° North  Level Estimated
01:12AM -8.6099 -45.9273 16° North  Level Estimated
01:13AM -8.5291 -45.9043 16° North  Level Estimated
01:14AM -8.4483 -45.8813 16° North  Level Estimated
01:15AM -8.3676 -45.8583 16° North  Level Estimated
01:16AM -8.2868 -45.8354 16° North  Level Estimated
01:17AM -8.2060 -45.8124 16° North  Level Estimated
01:18AM -8.1252 -45.7895 16° North  Level Estimated
01:19AM -8.0444 -45.7665 16° North  Level Estimated
01:20AM -7.9636 -45.7436 16° North  Level Estimated
01:21AM -7.8828 -45.7207 16° North  Level Estimated
01:22AM -7.8020 -45.6978 16° North  Level Estimated
01:23AM -7.7212 -45.6749 16° North  Level Estimated
01:24AM -7.6404 -45.6520 16° North  Level Estimated
01:25AM -7.5596 -45.6292 16° North  Level Estimated
01:26AM -7.4788 -45.6063 16° North  Level Estimated
01:27AM -7.3980 -45.5834 16° North  Level Estimated
01:28AM -7.3172 -45.5606 16° North  Level Estimated
01:28AM -5.8820 -45.1520 16° North 450 518 35,000  Level FlightAware
01:29AM -7.2364 -45.5377 16° North  Level Estimated
01:29AM -5.8000 -45.1290 16° North 450 518 35,000  Level FlightAware
01:30AM -5.6950 -45.0990 16° North 454 522 35,000  Level FlightAware
01:30AM -5.6290 -45.0810 15° North 454 522 35,000  Level FlightAware
01:31AM -5.5600 -45.0630 15° North 454 522 35,000  Level FlightAware
01:32AM -5.4510 -45.0320 16° North 454 522 35,000  Level FlightAware
01:34AM -5.3055 -44.9913 16° North  Level Estimated
01:34AM -5.2280 -44.9690 16° North 456 525 35,000  Level FlightAware
01:34AM -5.1510 -44.9470 16° North 452 520 35,000  Level FlightAware
01:35AM -5.0350 -44.9150 15° North 452 520 35,000 -780 Level FlightAware
01:38AM -4.8423 -44.8613 16° North  Level Estimated
01:39AM -4.7614 -44.8387 16° North  Level Estimated
01:40AM -4.6805 -44.8162 16° North  Level Estimated
01:41AM -4.5997 -44.7937 16° North  Level Estimated
01:42AM -4.5188 -44.7712 16° North  Level Estimated
01:42AM -4.2030 -44.6840 16° North 462 532 29,300  Level FlightAware
01:43AM -4.1110 -44.6580 16° North 465 535 27,100 -3,420 Descending FlightAware
01:44AM -3.9610 -44.6170 15° North 456 525 22,800 -3,300 Descending FlightAware
01:45AM -3.8870 -44.5960 16° North 441 507 21,100 -2,580 Descending FlightAware
01:45AM -3.8090 -44.5740 16° North 430 495 19,400 -1,380 Descending FlightAware
01:46AM -3.7240 -44.5510 15° North 415 478 19,200 -1,440 Descending FlightAware
01:47AM -3.6590 -44.5330 15° North 372 428 17,400 -2,880 Descending FlightAware
01:48AM -3.5470 -44.5010 16° North 376 433 14,400 -1,980 Descending FlightAware
01:49AM -3.4230 -44.4670 15° North 374 430 12,700 -840 Descending FlightAware
01:50AM -3.3660 -44.4520 15° North 374 430 12,700  Level FlightAware
01:50AM -3.3100 -44.4370 15° North 374 430 12,700  Level FlightAware
01:53AM -3.1376 -44.3887 16° North  Level Estimated
01:54AM -3.0568 -44.3661 16° North  Level Estimated
01:55AM -2.9759 -44.3434 16° North  Level Estimated
01:56AM -2.8951 -44.3208 16° North  Level Estimated
01:57AM -2.8143 -44.2982 16° North  Level Estimated
01:58AM -2.7334 -44.2756 16° North  Level Estimated
01:59AM -2.6526 -44.2529 16° North  Level Estimated
02:00AM -2.5854 -44.2341 16° North  Level Estimated
02:01AM -2.5854 -44.2341 135° Southeast  Level Estimated
02:02AM -2.5854 -44.2341 135° Southeast  Level Estimated
02:03AM -2.5854 -44.2341 135° Southeast  Level Estimated
02:04AM -2.5854 -44.2341 135° Southeast  Level Estimated
02:05AM -2.5854 -44.2341 135° Southeast  Level Estimated
02:06AM -2.5854 -44.2341 135° Southeast  Level Estimated
02:07AM -2.5854 -44.2341 135° Southeast  Level Estimated
02:08AM -2.5854 -44.2341 135° Southeast  Level Estimated
02:09AM -2.5854 -44.2341 135° Southeast  Level Estimated
02:10AM -2.5854 -44.2341 135° Southeast  Level Estimated
02:11AM -2.5854 -44.2341 135° Southeast  Level Estimated
02:12AM -2.5854 -44.2341 135° Southeast  Level Estimated
02:13AM -2.5854 -44.2341 135° Southeast  Level Estimated
02:14AM -2.5854 -44.2341 135° Southeast  Level Estimated
02:15AM -2.5854 -44.2341 135° Southeast  Level Estimated
02:16AM -2.5854 -44.2341 135° Southeast  Level Estimated
02:17AM -2.5854 -44.2341 135° Southeast  Level Estimated
02:18AM -2.5854 -44.2341 135° Southeast  Level Estimated
02:19AM -2.5854 -44.2341 135° Southeast  Level Estimated
02:20AM -2.5854 -44.2341 135° Southeast  Level Estimated
02:21AM -2.5854 -44.2341 135° Southeast  Level Estimated
02:22AM -2.5854 -44.2341 135° Southeast  Level Estimated
02:23AM -2.5854 -44.2341 135° Southeast  Level Estimated
02:24AM -2.5854 -44.2341 135° Southeast  Level Estimated
02:25AM -2.5854 -44.2341 135° Southeast  Level Estimated
02:26AM -2.5854 -44.2341 135° Southeast  Level Estimated
02:27AM -2.5854 -44.2341 135° Southeast  Level Estimated
02:28AM -2.5854 -44.2341 135° Southeast  Level Estimated
02:29AM -2.5854 -44.2341 135° Southeast  Level Estimated
02:30AM -2.5854 -44.2341 135° Southeast  Level Estimated
02:31AM -2.5854 -44.2341 135° Southeast  Level Estimated
02:32AM -2.5854 -44.2341 135° Southeast  Level Estimated
02:33AM -2.5854 -44.2341 135° Southeast  Level Estimated
02:34AM -2.5854 -44.2341 135° Southeast  Level Estimated
02:35AM -2.5854 -44.2341 135° Southeast  Level Estimated
02:36AM -2.5854 -44.2341 135° Southeast  Level Estimated
02:37AM -2.5854 -44.2341 135° Southeast  Level Estimated
02:38AM -2.5854 -44.2341 135° Southeast  Level Estimated
02:39AM -2.5854 -44.2341 135° Southeast  Level Estimated
02:40AM -2.5854 -44.2341 135° Southeast  Level Estimated
02:41AM -2.5854 -44.2341 135° Southeast  Level Estimated
02:42AM -2.5854 -44.2341 135° Southeast  Level Estimated
02:43AM -2.5854 -44.2341 135° Southeast  Level Estimated
02:44AM -2.5854 -44.2341 135° Southeast  Level Estimated
02:45AM -2.5854 -44.2341 135° Southeast  Level Estimated
02:46AM -2.5854 -44.2341 135° Southeast  Level Estimated
02:47AM -2.5854 -44.2341 135° Southeast  Level Estimated
02:48AM -2.5854 -44.2341 135° Southeast  Level Estimated
02:49AM -2.5854 -44.2341 135° Southeast  Level Estimated
02:50AM -2.5854 -44.2341 135° Southeast  Level Estimated
02:51AM -2.5854 -44.2341 135° Southeast  Level Estimated
02:52AM -2.5854 -44.2341 135° Southeast  Level Estimated
02:53AM -2.5854 -44.2341 135° Southeast  Level Estimated
02:54AM -2.5854 -44.2341 135° Southeast  Level Estimated
02:55AM -2.5854 -44.2341 135° Southeast  Level Estimated
02:56AM -2.5854 -44.2341 135° Southeast  Level Estimated
02:57AM -2.5854 -44.2341 135° Southeast  Level Estimated
02:58AM -2.5854 -44.2341 135° Southeast  Level Estimated
02:59AM -2.5854 -44.2341 135° Southeast  Level Estimated
03:00AM -2.5854 -44.2341 135° Southeast  Level Estimated
03:01AM -2.5854 -44.2341 135° Southeast  Level Estimated
03:02AM -2.5854 -44.2341 135° Southeast  Level Estimated